createdAt,value
2018-02-05T00:00:37.403Z,33.85
2018-02-05T00:03:04.911Z,35.90
2018-02-05T00:05:32.574Z,34.33
2018-02-05T00:08:00.085Z,35.22
2018-02-05T00:10:28.488Z,34.78
2018-02-05T00:12:56.013Z,35.88
2018-02-05T00:15:23.506Z,33.70
2018-02-05T00:17:51.811Z,34.55
2018-02-05T00:20:19.295Z,35.17
2018-02-05T00:22:46.824Z,34.33
2018-02-05T00:25:14.458Z,33.70
2018-02-05T00:27:41.981Z,34.47
2018-02-05T00:30:09.556Z,35.53
2018-02-05T00:32:37.118Z,34.63
2018-02-05T00:35:04.795Z,34.50
2018-02-05T00:37:32.303Z,36.13
2018-02-05T00:39:59.933Z,35.47
2018-02-05T00:42:27.421Z,37.65
2018-02-05T00:44:54.958Z,37.30
2018-02-05T00:47:22.440Z,34.35
2018-02-05T00:49:49.960Z,35.03
2018-02-05T00:52:17.461Z,34.83
2018-02-05T00:54:44.987Z,34.45
2018-02-05T00:57:12.541Z,37.15
2018-02-05T00:59:40.177Z,37.03
2018-02-05T01:02:07.698Z,36.92
2018-02-05T01:04:35.559Z,33.90
2018-02-05T01:07:03.082Z,36.55
2018-02-05T01:09:30.578Z,36.47
2018-02-05T01:11:58.099Z,38.95
2018-02-05T01:14:25.654Z,39.42
2018-02-05T01:16:53.266Z,37.17
2018-02-05T01:19:20.760Z,36.70
2018-02-05T01:21:48.270Z,37.15
2018-02-05T01:24:16.085Z,37.78
2018-02-05T01:26:43.618Z,40.33
2018-02-05T01:29:11.105Z,36.42
2018-02-05T01:31:38.950Z,37.55
2018-02-05T01:34:07.221Z,37.55
2018-02-05T01:36:35.482Z,35.28
2018-02-05T01:39:03.038Z,34.72
2018-02-05T01:41:30.548Z,35.60
2018-02-05T01:43:58.064Z,34.53
2018-02-05T01:46:25.566Z,36.92
2018-02-05T01:48:53.077Z,35.22
2018-02-05T01:51:21.511Z,36.55
2018-02-05T01:53:49.425Z,37.10
2018-02-05T01:56:16.905Z,35.83
2018-02-05T01:58:44.501Z,35.78
2018-02-05T02:01:12.350Z,34.83
2018-02-05T02:03:39.864Z,35.58
2018-02-05T02:06:07.366Z,35.45
2018-02-05T02:08:34.898Z,35.90
2018-02-05T02:11:03.157Z,36.83
2018-02-05T02:13:31.456Z,36.38
2018-02-05T02:15:58.993Z,34.70
2018-02-05T02:18:27.256Z,34.85
2018-02-05T02:20:54.778Z,35.67
2018-02-05T02:23:22.265Z,33.67
2018-02-05T02:25:49.774Z,34.42
2018-02-05T02:28:17.544Z,35.28
2018-02-05T02:30:45.055Z,36.00
2018-02-05T02:33:12.551Z,34.60
2018-02-05T02:35:40.050Z,36.28
2018-02-05T02:38:07.541Z,34.42
2018-02-05T02:40:35.069Z,34.92
2018-02-05T02:43:02.555Z,34.53
2018-02-05T02:45:30.058Z,32.78
2018-02-05T02:47:57.603Z,31.70
2018-02-05T02:50:25.153Z,31.45
2018-02-05T02:52:52.662Z,30.80
2018-02-05T02:55:20.182Z,31.08
2018-02-05T02:57:47.682Z,30.77
2018-02-05T03:00:15.180Z,31.12
2018-02-05T03:02:42.740Z,31.25
2018-02-05T03:05:10.521Z,32.58
2018-02-05T03:07:38.025Z,31.15
2018-02-05T03:10:05.514Z,32.33
2018-02-05T03:12:33.801Z,32.47
2018-02-05T03:15:02.108Z,32.85
2018-02-05T03:17:29.737Z,30.52
2018-02-05T03:19:57.249Z,33.55
2018-02-05T03:22:24.747Z,33.65
2018-02-05T03:24:53.156Z,34.55
2018-02-05T03:27:20.693Z,33.55
2018-02-05T03:29:49.297Z,33.42
2018-02-05T03:32:16.816Z,32.30
2018-02-05T03:34:45.056Z,33.03
2018-02-05T03:37:12.608Z,34.78
2018-02-05T03:39:40.116Z,36.17
2018-02-05T03:42:08.536Z,35.45
2018-02-05T03:44:36.049Z,33.45
2018-02-05T03:47:03.537Z,32.55
2018-02-05T03:49:31.049Z,34.55
2018-02-05T03:51:58.646Z,32.67
2018-02-05T03:54:26.157Z,32.10
2018-02-05T03:56:53.748Z,31.90
2018-02-05T03:59:21.269Z,33.28
2018-02-05T04:01:48.761Z,34.92
2018-02-05T04:04:16.278Z,31.62
2018-02-05T04:06:49.376Z,34.30
2018-02-05T04:09:16.969Z,34.08
2018-02-05T04:11:45.242Z,33.70
2018-02-05T04:14:13.544Z,35.53
2018-02-05T04:16:41.034Z,35.42
2018-02-05T04:19:08.552Z,34.97
2018-02-05T04:21:36.045Z,34.85
2018-02-05T04:24:03.543Z,37.88
2018-02-05T04:26:31.086Z,37.30
2018-02-05T04:28:58.586Z,36.17
2018-02-05T04:31:26.894Z,36.92
2018-02-05T04:33:54.391Z,34.22
2018-02-05T04:36:21.890Z,36.13
2018-02-05T04:38:49.382Z,38.22
2018-02-05T04:41:16.885Z,37.22
2018-02-05T04:43:44.373Z,37.78
2018-02-05T04:46:11.979Z,38.35
2018-02-05T04:48:39.469Z,39.78
2018-02-05T04:51:07.210Z,36.75
2018-02-05T04:53:35.483Z,37.97
2018-02-05T04:56:03.749Z,36.95
2018-02-05T04:58:31.253Z,36.50
2018-02-05T05:00:58.769Z,36.42
2018-02-05T05:03:26.330Z,36.50
2018-02-05T05:05:53.868Z,36.35
2018-02-05T05:08:21.368Z,39.22
2018-02-05T05:10:48.861Z,36.17
2018-02-05T05:13:16.360Z,37.78
2018-02-05T05:15:43.846Z,34.63
2018-02-05T05:18:11.400Z,31.48
2018-02-05T05:20:38.926Z,32.63
2018-02-05T05:23:06.464Z,34.97
2018-02-05T05:25:33.954Z,33.28
2018-02-05T05:28:01.512Z,32.17
2018-02-05T05:30:29.137Z,30.92
2018-02-05T05:32:56.692Z,32.05
2018-02-05T05:35:24.181Z,30.48
2018-02-05T05:37:51.899Z,29.67
2018-02-05T05:40:19.425Z,30.92
2018-02-05T05:42:47.691Z,31.85
2018-02-05T05:45:15.388Z,31.60
2018-02-05T05:47:42.938Z,31.48
2018-02-05T05:50:10.507Z,34.40
2018-02-05T05:52:37.990Z,32.80
2018-02-05T05:55:05.624Z,33.00
2018-02-05T05:57:33.162Z,32.90
2018-02-05T06:00:00.692Z,32.28
2018-02-05T06:02:28.181Z,32.70
2018-02-05T06:04:56.507Z,32.17
2018-02-05T06:07:24.107Z,34.35
2018-02-05T06:09:51.664Z,34.47
2018-02-05T06:12:19.936Z,34.55
2018-02-05T06:14:47.451Z,34.65
2018-02-05T06:17:14.956Z,35.03
2018-02-05T06:19:42.484Z,33.63
2018-02-05T06:22:11.809Z,35.15
2018-02-05T06:24:39.336Z,34.28
2018-02-05T06:27:06.948Z,37.28
2018-02-05T06:29:34.593Z,33.13
2018-02-05T06:32:02.119Z,33.60
2018-02-05T06:34:29.651Z,35.03
2018-02-05T06:36:57.172Z,31.12
2018-02-05T06:39:25.659Z,32.78
2018-02-05T06:41:53.191Z,30.73
2018-02-05T06:44:20.698Z,29.27
2018-02-05T06:46:48.249Z,28.92
2018-02-05T06:49:15.762Z,27.62
2018-02-05T06:51:55.102Z,26.87
2018-02-05T06:54:34.415Z,26.73
2018-02-05T06:57:01.938Z,23.45
2018-02-05T06:59:29.481Z,25.70
2018-02-05T07:01:56.959Z,24.48
2018-02-05T07:04:24.704Z,23.27
2018-02-05T07:06:53.125Z,23.65
2018-02-05T07:09:20.755Z,22.95
2018-02-05T07:11:48.321Z,22.05
2018-02-05T07:14:15.896Z,24.58
2018-02-05T07:16:43.393Z,24.42
2018-02-05T07:19:10.953Z,24.95
2018-02-05T07:21:38.493Z,19.67
2018-02-05T07:24:06.098Z,19.17
2018-02-05T07:26:34.377Z,19.85
2018-02-05T07:29:02.726Z,18.27
2018-02-05T07:31:30.214Z,18.25
2018-02-05T07:33:57.791Z,19.40
2018-02-05T07:36:25.534Z,19.20
2018-02-05T07:38:53.103Z,18.37
2018-02-05T07:41:20.614Z,15.50
2018-02-05T07:43:48.140Z,15.65
2018-02-05T07:46:15.736Z,16.10
2018-02-05T07:48:43.249Z,15.40
2018-02-05T07:51:10.829Z,16.27
2018-02-05T07:53:38.346Z,15.18
2018-02-05T07:56:05.917Z,13.93
2018-02-05T07:58:33.383Z,13.68
2018-02-05T08:01:00.943Z,14.50
2018-02-05T08:03:28.863Z,13.27
2018-02-05T08:05:56.385Z,14.07
2018-02-05T08:08:23.906Z,12.80
2018-02-05T08:10:51.486Z,12.48
2018-02-05T08:13:19.057Z,12.32
2018-02-05T08:15:46.613Z,12.05
2018-02-05T08:18:14.155Z,11.17
2018-02-05T08:20:41.715Z,10.67
2018-02-05T08:23:11.051Z,9.57
2018-02-05T08:25:38.566Z,10.20
2018-02-05T08:28:06.121Z,9.90
2018-02-05T08:30:33.665Z,9.63
2018-02-05T08:33:01.400Z,10.00
2018-02-05T08:35:28.893Z,10.17
2018-02-05T08:37:57.209Z,9.10
2018-02-05T08:40:24.711Z,9.73
2018-02-05T08:43:06.086Z,9.83
2018-02-05T08:45:34.163Z,10.47
2018-02-05T08:48:01.713Z,10.20
2018-02-05T08:50:29.313Z,9.63
2018-02-05T08:52:57.582Z,9.83
2018-02-05T08:55:25.161Z,9.63
2018-02-05T08:57:52.758Z,9.70
2018-02-05T09:00:20.256Z,9.37
2018-02-05T09:02:48.615Z,10.10
2018-02-05T09:05:16.157Z,10.23
2018-02-05T09:07:43.677Z,10.47
2018-02-05T09:10:11.205Z,11.17
2018-02-05T09:12:38.707Z,11.13
2018-02-05T09:15:06.278Z,11.23
2018-02-05T09:17:33.868Z,11.27
2018-02-05T09:20:01.431Z,10.60
2018-02-05T09:22:29.149Z,10.83
2018-02-05T09:24:57.822Z,11.40
2018-02-05T09:27:25.941Z,11.27
2018-02-05T09:29:53.465Z,11.47
2018-02-05T09:32:20.996Z,10.73
2018-02-05T09:34:48.674Z,12.03
2018-02-05T09:37:16.196Z,11.07
2018-02-05T09:39:44.476Z,10.80
2018-02-05T09:42:12.795Z,10.93
2018-02-05T09:44:40.323Z,11.57
2018-02-05T09:47:08.017Z,11.07
2018-02-05T09:49:35.497Z,10.80
2018-02-05T09:52:03.006Z,11.93
2018-02-05T09:54:31.805Z,11.33
2018-02-05T09:56:59.341Z,11.40
2018-02-05T09:59:26.862Z,11.43
2018-02-05T10:01:54.374Z,11.43
2018-02-05T10:04:35.646Z,11.00
2018-02-05T10:07:04.125Z,11.20
2018-02-05T10:09:31.642Z,12.07
2018-02-05T10:11:59.141Z,12.13
2018-02-05T10:14:27.501Z,11.80
2018-02-05T10:16:55.030Z,13.60
2018-02-05T10:19:22.554Z,13.90
2018-02-05T10:21:50.057Z,13.73
2018-02-05T10:24:17.875Z,14.33
2018-02-05T10:26:45.565Z,12.60
2018-02-05T10:29:13.512Z,12.67
2018-02-05T10:31:41.002Z,12.70
2018-02-05T10:34:08.515Z,13.97
2018-02-05T10:36:36.802Z,12.70
2018-02-05T10:39:04.518Z,13.30
2018-02-05T10:41:32.046Z,13.60
2018-02-05T10:43:59.752Z,12.87
2018-02-05T10:46:27.263Z,12.90
2018-02-05T10:48:54.777Z,13.63
2018-02-05T10:51:22.326Z,14.30
2018-02-05T10:53:49.859Z,14.80
2018-02-05T10:56:17.394Z,14.63
2018-02-05T10:58:45.030Z,14.27
2018-02-05T11:01:12.773Z,14.47
2018-02-05T11:03:40.273Z,15.00
2018-02-05T11:06:07.782Z,14.87
2018-02-05T11:08:35.286Z,16.42
2018-02-05T11:11:02.853Z,14.93
2018-02-05T11:13:30.695Z,15.50
2018-02-05T11:15:58.252Z,15.70
2018-02-05T11:18:25.904Z,16.10
2018-02-05T11:20:53.889Z,14.93
2018-02-05T11:23:21.573Z,14.83
2018-02-05T11:25:49.097Z,15.53
2018-02-05T11:28:16.598Z,15.50
2018-02-05T11:30:44.083Z,15.30
2018-02-05T11:33:11.617Z,14.47
2018-02-05T11:35:39.694Z,15.03
2018-02-05T11:38:07.313Z,16.07
2018-02-05T11:40:34.932Z,15.40
2018-02-05T11:43:02.621Z,15.60
2018-02-05T11:45:30.943Z,14.63
2018-02-05T11:47:58.463Z,15.10
2018-02-05T11:50:25.962Z,15.63
2018-02-05T11:52:53.492Z,14.40
2018-02-05T11:55:20.997Z,13.93
2018-02-05T11:57:48.518Z,15.37
2018-02-05T12:00:16.092Z,14.63
2018-02-05T12:02:43.598Z,14.87
2018-02-05T12:05:11.888Z,15.50
2018-02-05T12:07:40.180Z,15.30
2018-02-05T12:10:07.686Z,15.90
2018-02-05T12:12:35.202Z,16.23
2018-02-05T12:15:02.745Z,14.53
2018-02-05T12:17:30.340Z,15.13
2018-02-05T12:19:57.866Z,15.90
2018-02-05T12:22:25.405Z,15.23
2018-02-05T12:24:53.710Z,15.13
2018-02-05T12:27:21.199Z,15.87
2018-02-05T12:29:48.739Z,14.47
2018-02-05T12:32:16.271Z,15.40
2018-02-05T12:34:44.555Z,14.00
2018-02-05T12:37:12.067Z,13.83
2018-02-05T12:39:39.595Z,13.23
2018-02-05T12:42:07.143Z,15.10
2018-02-05T12:44:34.707Z,15.03
2018-02-05T12:47:02.259Z,15.27
2018-02-05T12:49:29.766Z,14.53
2018-02-05T12:51:58.187Z,13.63
2018-02-05T12:54:25.782Z,13.93
2018-02-05T12:56:53.464Z,13.03
2018-02-05T12:59:20.995Z,14.37
2018-02-05T13:04:51.099Z,13.43
2018-02-05T13:07:18.659Z,13.70
2018-02-05T13:09:46.161Z,14.05
2018-02-05T13:12:13.716Z,13.93
2018-02-05T13:14:41.254Z,13.57
2018-02-05T13:17:09.211Z,13.57
2018-02-05T13:19:36.688Z,13.57
2018-02-05T13:22:04.208Z,13.10
2018-02-05T13:24:31.754Z,13.15
2018-02-05T13:26:59.895Z,12.60
2018-02-05T13:29:27.418Z,12.80
2018-02-05T13:31:54.934Z,13.90
2018-02-05T13:34:22.457Z,12.80
2018-02-05T13:36:49.988Z,12.97
2018-02-05T13:39:18.799Z,13.37
2018-02-05T13:42:22.207Z,13.27
2018-02-05T13:44:49.693Z,12.97
2018-02-05T13:47:17.466Z,13.83
2018-02-05T13:49:45.137Z,14.43
2018-02-05T13:52:12.651Z,13.47
2018-02-05T13:54:40.505Z,13.03
2018-02-05T13:57:08.005Z,13.43
2018-02-05T13:59:35.838Z,13.47
2018-02-05T14:02:03.329Z,13.50
2018-02-05T14:04:30.916Z,12.93
2018-02-05T14:06:58.536Z,12.93
2018-02-05T14:09:26.251Z,12.83
2018-02-05T14:11:53.778Z,12.53
2018-02-05T14:14:21.300Z,12.07
2018-02-05T14:16:48.795Z,11.70
2018-02-05T14:19:16.327Z,12.30
2018-02-05T14:21:43.874Z,11.60
2018-02-05T14:24:11.437Z,11.53
2018-02-05T14:26:39.029Z,11.57
2018-02-05T14:29:06.671Z,10.73
2018-02-05T14:31:34.281Z,11.07
2018-02-05T14:34:01.957Z,11.30
2018-02-05T14:36:29.511Z,11.57
2018-02-05T14:38:57.054Z,12.20
2018-02-05T14:41:24.621Z,10.73
2018-02-05T14:43:52.385Z,10.70
2018-02-05T14:46:19.933Z,11.40
2018-02-05T14:48:47.716Z,11.27
2018-02-05T14:51:15.549Z,11.63
2018-02-05T14:53:43.053Z,11.97
2018-02-05T14:56:10.914Z,12.03
2018-02-05T14:58:38.424Z,10.87
2018-02-05T15:01:05.974Z,11.20
2018-02-05T15:03:33.467Z,11.33
2018-02-05T15:06:01.042Z,10.40
2018-02-05T15:08:28.697Z,11.00
2018-02-05T15:10:56.246Z,10.47
2018-02-05T15:13:24.083Z,10.77
2018-02-05T15:15:51.675Z,10.77
2018-02-05T15:18:19.217Z,11.40
2018-02-05T15:20:46.737Z,11.32
2018-02-05T15:23:14.272Z,12.13
2018-02-05T15:25:41.846Z,11.07
2018-02-05T15:28:09.380Z,11.80
2018-02-05T15:30:37.147Z,12.43
2018-02-05T15:33:05.686Z,11.63
2018-02-05T15:35:33.472Z,11.93
2018-02-05T15:38:01.336Z,11.23
2018-02-05T15:40:28.914Z,12.53
2018-02-05T15:42:57.145Z,13.20
2018-02-05T15:45:25.066Z,13.13
2018-02-05T15:47:53.142Z,12.98
2018-02-05T15:50:20.716Z,12.57
2018-02-05T15:52:48.231Z,12.80
2018-02-05T15:55:15.834Z,12.47
2018-02-05T15:57:44.169Z,13.30
2018-02-05T16:00:11.869Z,13.23
2018-02-05T16:02:39.994Z,13.23
2018-02-05T16:05:07.905Z,14.20
2018-02-05T16:07:35.536Z,13.90
2018-02-05T16:10:03.757Z,13.65
2018-02-05T16:12:31.718Z,13.25
2018-02-05T16:15:00.297Z,13.68
2018-02-05T16:17:27.910Z,14.23
2018-02-05T16:19:56.323Z,14.05
2018-02-05T16:22:24.218Z,13.35
2018-02-05T16:24:51.814Z,14.60
2018-02-05T16:27:19.370Z,13.85
2018-02-05T16:29:47.196Z,13.27
2018-02-05T16:32:14.713Z,14.15
2018-02-05T16:34:43.344Z,14.85
2018-02-05T16:37:11.132Z,17.12
2018-02-05T16:39:39.561Z,16.42
2018-02-05T16:42:07.970Z,16.42
2018-02-05T16:44:35.531Z,14.98
2018-02-05T16:47:03.457Z,15.50
2018-02-05T16:49:31.174Z,14.63
2018-02-05T16:51:58.900Z,15.13
2018-02-05T16:54:26.722Z,14.65
2018-02-05T16:56:55.972Z,14.40
2018-02-05T16:59:24.556Z,15.85
2018-02-05T17:01:52.302Z,15.45
2018-02-05T17:04:19.866Z,15.52
2018-02-05T17:06:47.523Z,15.77
2018-02-05T17:09:15.679Z,14.68
2018-02-05T17:11:43.188Z,14.98
2018-02-05T17:14:11.222Z,17.98
2018-02-05T17:16:38.952Z,17.20
2018-02-05T17:19:06.460Z,16.20
2018-02-05T17:21:34.040Z,15.85
2018-02-05T17:24:01.560Z,17.40
2018-02-05T17:26:29.781Z,15.77
2018-02-05T17:28:57.322Z,18.75
2018-02-05T17:31:25.094Z,18.62
2018-02-05T17:33:52.645Z,16.58
2018-02-05T17:36:20.248Z,16.00
2018-02-05T17:38:47.949Z,16.40
2018-02-05T17:41:15.457Z,15.82
2018-02-05T17:43:43.743Z,17.52
2018-02-05T17:46:11.279Z,16.37
2018-02-05T17:48:38.851Z,16.42
2018-02-05T17:51:06.622Z,16.52
2018-02-05T17:53:35.033Z,16.45
2018-02-05T17:56:02.560Z,15.88
2018-02-05T17:58:30.971Z,16.87
2018-02-05T18:00:58.908Z,15.80
2018-02-05T18:03:26.510Z,15.88
2018-02-05T18:05:54.120Z,16.08
2018-02-05T18:08:21.641Z,15.57
2018-02-05T18:10:49.194Z,14.87
2018-02-05T18:13:16.735Z,16.20
2018-02-05T18:15:44.265Z,16.15
2018-02-05T18:18:12.530Z,15.77
2018-02-05T18:20:40.039Z,15.55
2018-02-05T18:23:07.588Z,15.65
2018-02-05T18:25:35.104Z,15.82
2018-02-05T18:28:03.731Z,15.10
2018-02-05T18:30:31.256Z,15.05
2018-02-05T18:32:58.789Z,15.27
2018-02-05T18:35:26.292Z,15.15
2018-02-05T18:37:53.853Z,15.90
2018-02-05T18:40:21.382Z,14.98
2018-02-05T18:42:49.783Z,14.20
2018-02-05T18:45:17.336Z,15.70
2018-02-05T18:47:44.853Z,15.25
2018-02-05T18:50:12.362Z,14.98
2018-02-05T18:52:39.889Z,14.70
2018-02-05T18:55:08.179Z,14.50
2018-02-05T18:57:35.766Z,15.13
2018-02-05T19:00:15.195Z,15.07
2018-02-05T19:02:42.735Z,15.30
2018-02-05T19:05:11.024Z,15.00
2018-02-05T19:07:38.588Z,14.40
2018-02-05T19:10:06.180Z,14.63
2018-02-05T19:12:33.694Z,14.15
2018-02-05T19:15:01.383Z,15.65
2018-02-05T19:17:29.491Z,15.85
2018-02-05T19:19:57.007Z,14.25
2018-02-05T19:22:24.599Z,14.13
2018-02-05T21:06:33.893Z,12.30
2018-02-05T21:09:01.427Z,13.82
2018-02-05T21:11:28.951Z,13.27
2018-02-05T21:13:57.253Z,13.00
2018-02-05T21:16:24.760Z,12.45
2018-02-05T21:18:52.304Z,13.85
2018-02-05T21:21:19.813Z,13.23
2018-02-05T21:23:47.513Z,12.30
2018-02-05T21:26:15.046Z,13.82
2018-02-05T21:28:42.569Z,14.18
2018-02-05T21:31:10.181Z,13.73
2018-02-05T21:33:37.830Z,13.75
2018-02-05T21:36:05.335Z,12.77
2018-02-05T21:38:32.830Z,13.38
2018-02-05T21:41:00.390Z,13.52
2018-02-05T21:43:28.646Z,14.23
2018-02-05T21:45:56.328Z,13.32
2018-02-05T21:48:23.821Z,14.02
2018-02-05T21:50:51.357Z,14.05
2018-02-05T21:53:26.587Z,13.80
2018-02-05T21:55:54.335Z,13.98
2018-02-05T21:58:21.828Z,14.07
2018-02-05T22:00:49.328Z,14.25
2018-02-05T22:03:16.848Z,14.05
2018-02-05T22:05:44.441Z,14.38
2018-02-05T22:08:11.949Z,14.63
2018-02-05T22:10:39.473Z,14.38
2018-02-05T22:13:07.018Z,14.43
2018-02-05T22:15:34.560Z,14.43
2018-02-05T22:18:02.064Z,14.48
2018-02-05T22:20:29.563Z,13.07
2018-02-05T22:22:57.064Z,14.38
2018-02-05T22:25:24.556Z,14.82
2018-02-05T22:27:52.937Z,14.20
2018-02-05T22:30:20.424Z,15.43
2018-02-05T22:32:47.974Z,15.23
2018-02-05T22:35:15.544Z,14.20
2018-02-05T22:37:43.064Z,14.45
2018-02-05T22:40:17.989Z,15.32
2018-02-05T22:42:46.259Z,14.63
2018-02-05T22:45:14.723Z,14.82
2018-02-05T22:47:42.521Z,14.85
2018-02-05T22:50:10.914Z,15.95
2018-02-05T22:52:38.558Z,15.27
2018-02-05T22:55:06.969Z,16.10
2018-02-05T22:57:35.482Z,15.35
2018-02-05T23:00:03.007Z,15.27
2018-02-05T23:02:30.551Z,15.32
2018-02-05T23:04:58.218Z,15.48
2018-02-05T23:07:25.769Z,15.05
2018-02-05T23:09:53.281Z,15.90
2018-02-05T23:12:20.819Z,15.38
2018-02-05T23:14:48.444Z,15.45
2018-02-05T23:17:15.996Z,15.27
2018-02-05T23:19:44.273Z,15.32
2018-02-05T23:22:11.770Z,14.75
2018-02-05T23:24:39.313Z,14.98
2018-02-05T23:27:06.802Z,15.68
2018-02-05T23:29:34.401Z,14.73
2018-02-05T23:32:02.790Z,15.88
2018-02-05T23:34:30.300Z,14.95
2018-02-05T23:36:57.797Z,15.88
2018-02-05T23:39:25.317Z,15.85
2018-02-05T23:41:52.828Z,14.50
2018-02-05T23:44:20.367Z,14.55
2018-02-05T23:46:48.757Z,15.52
2018-02-05T23:49:16.382Z,14.50
2018-02-05T23:51:43.905Z,14.68
2018-02-05T23:54:11.397Z,15.55
2018-02-05T23:56:39.057Z,15.52
2018-02-05T23:59:06.562Z,14.90
